createdAt,value
2023-03-10T00:01:30.708Z,1.90
2023-03-10T00:04:01.860Z,1.73
2023-03-10T00:06:36.051Z,2.07
2023-03-10T00:09:08.421Z,1.70
2023-03-10T00:11:38.211Z,2.07
2023-03-10T00:14:08.206Z,1.80
2023-03-10T00:16:37.942Z,1.67
2023-03-10T00:19:07.756Z,1.80
2023-03-10T00:21:38.414Z,2.07
2023-03-10T00:24:12.069Z,2.40
2023-03-10T00:26:41.905Z,2.00
2023-03-10T00:29:14.257Z,2.30
2023-03-10T00:31:44.085Z,1.80
2023-03-10T00:34:14.154Z,2.50
2023-03-10T00:36:44.130Z,2.10
2023-03-10T00:39:16.763Z,1.77
2023-03-10T00:41:46.625Z,1.20
2023-03-10T00:44:16.760Z,1.90
2023-03-10T00:46:46.696Z,1.80
2023-03-10T00:49:19.648Z,1.37
2023-03-10T00:51:49.718Z,1.30
2023-03-10T00:54:22.209Z,1.40
2023-03-10T00:56:52.005Z,1.33
2023-03-10T00:59:21.879Z,2.10
2023-03-10T01:01:51.706Z,0.87
2023-03-10T01:04:21.781Z,0.80
2023-03-10T01:06:51.719Z,0.50
2023-03-10T01:09:24.317Z,0.37
2023-03-10T01:11:56.341Z,0.80
2023-03-10T01:14:26.145Z,0.60
2023-03-10T01:16:55.907Z,0.60
2023-03-10T01:19:25.663Z,0.50
2023-03-10T01:21:55.503Z,0.50
2023-03-10T01:24:29.373Z,0.53
2023-03-10T01:26:59.157Z,0.50
2023-03-10T01:29:28.977Z,0.80
2023-03-10T01:31:58.730Z,0.93
2023-03-10T01:34:28.669Z,0.50
2023-03-10T01:36:58.473Z,0.60
2023-03-10T01:39:31.012Z,0.73
2023-03-10T01:42:00.882Z,0.77
2023-03-10T01:44:30.762Z,0.90
2023-03-10T01:47:01.757Z,1.00
2023-03-10T01:49:41.881Z,0.80
2023-03-10T01:52:20.653Z,1.03
2023-03-10T01:54:57.997Z,1.00
2023-03-10T01:57:32.796Z,1.10
2023-03-10T02:00:04.286Z,1.20
2023-03-10T02:02:38.106Z,1.10
2023-03-10T02:05:09.427Z,1.37
2023-03-10T02:07:41.457Z,1.50
2023-03-10T02:10:15.900Z,1.50
2023-03-10T02:12:46.298Z,1.40
2023-03-10T02:15:16.733Z,1.63
2023-03-10T02:17:46.922Z,1.80
2023-03-10T02:20:30.280Z,1.70
2023-03-10T02:23:00.324Z,1.70
2023-03-10T02:25:43.048Z,1.50
2023-03-10T02:28:15.790Z,1.50
2023-03-10T02:30:48.626Z,1.73
2023-03-10T02:33:22.847Z,1.60
2023-03-10T02:35:52.785Z,1.13
2023-03-10T02:38:22.983Z,1.53
2023-03-10T02:40:55.872Z,1.67
2023-03-10T02:43:30.528Z,1.80
2023-03-10T02:46:02.885Z,1.90
2023-03-10T02:48:35.959Z,1.93
2023-03-10T02:51:09.499Z,2.43
2023-03-10T02:53:39.591Z,2.27
2023-03-10T02:56:10.120Z,2.43
2023-03-10T02:58:42.910Z,2.17
2023-03-10T03:01:13.278Z,2.27
2023-03-10T03:03:43.290Z,2.47
2023-03-10T03:06:13.636Z,2.40
2023-03-10T03:08:43.762Z,2.13
2023-03-10T03:11:13.728Z,2.10
2023-03-10T03:13:46.500Z,2.40
2023-03-10T03:16:17.006Z,2.20
2023-03-10T03:18:46.989Z,2.07
2023-03-10T03:21:21.480Z,1.93
2023-03-10T03:23:51.427Z,2.20
2023-03-10T03:26:23.808Z,2.07
2023-03-10T03:28:56.588Z,2.00
2023-03-10T03:31:28.542Z,2.20
2023-03-10T03:33:58.355Z,1.80
2023-03-10T03:36:28.268Z,2.00
2023-03-10T03:38:58.276Z,2.10
2023-03-10T03:41:28.254Z,2.37
2023-03-10T03:44:00.851Z,2.37
2023-03-10T03:46:30.947Z,2.30
2023-03-10T03:49:01.350Z,1.90
2023-03-10T03:51:31.297Z,1.83
2023-03-10T03:54:01.105Z,1.97
2023-03-10T03:56:30.906Z,1.67
2023-03-10T03:59:03.707Z,2.27
2023-03-10T04:01:33.478Z,2.30
2023-03-10T04:04:03.391Z,3.10
2023-03-10T04:06:33.263Z,5.37
2023-03-10T04:09:03.461Z,4.27
2023-03-10T04:11:36.414Z,3.40
2023-03-10T04:14:09.471Z,3.27
2023-03-10T04:16:42.213Z,2.87
2023-03-10T04:19:12.079Z,3.03
2023-03-10T04:21:42.234Z,3.10
2023-03-10T04:24:12.175Z,3.07
2023-03-10T04:26:42.073Z,3.23
2023-03-10T04:29:15.110Z,2.80
2023-03-10T04:31:50.522Z,2.40
2023-03-10T04:34:28.905Z,2.63
2023-03-10T04:37:01.258Z,2.70
2023-03-10T04:39:31.067Z,2.30
2023-03-10T04:42:01.170Z,2.67
2023-03-10T04:44:33.550Z,2.27
2023-03-10T04:47:03.929Z,1.93
2023-03-10T04:49:33.800Z,2.33
2023-03-10T04:52:03.565Z,2.30
2023-03-10T04:54:33.361Z,2.13
2023-03-10T04:57:03.257Z,1.90
2023-03-10T04:59:35.773Z,1.57
2023-03-10T05:02:05.754Z,1.77
2023-03-10T05:04:35.664Z,2.10
2023-03-10T05:07:05.836Z,1.90
2023-03-10T05:09:38.373Z,2.20
2023-03-10T05:12:08.890Z,2.10
2023-03-10T05:14:42.860Z,1.80
2023-03-10T05:17:13.130Z,1.90
2023-03-10T05:19:42.998Z,1.23
2023-03-10T05:22:14.180Z,1.73
2023-03-10T05:24:44.016Z,1.43
2023-03-10T05:27:15.125Z,1.30
2023-03-10T05:29:47.788Z,1.30
2023-03-10T05:32:18.012Z,1.20
2023-03-10T05:34:47.934Z,1.40
2023-03-10T05:37:18.010Z,1.10
2023-03-10T05:39:47.777Z,1.50
2023-03-10T05:42:17.621Z,1.27
2023-03-10T05:44:50.216Z,1.10
2023-03-10T05:47:20.867Z,1.20
2023-03-10T05:49:50.785Z,1.17
2023-03-10T05:52:21.114Z,1.37
2023-03-10T05:54:50.900Z,0.97
2023-03-10T05:57:20.803Z,1.13
2023-03-10T05:59:53.385Z,1.63
2023-03-10T06:02:23.193Z,1.53
2023-03-10T06:04:53.073Z,1.67
2023-03-10T06:07:25.233Z,1.57
2023-03-10T06:09:55.813Z,1.53
2023-03-10T06:12:25.713Z,1.33
2023-03-10T06:14:58.137Z,1.90
2023-03-10T06:17:28.037Z,1.70
2023-03-10T06:19:57.934Z,1.47
2023-03-10T06:22:30.758Z,1.50
2023-03-10T06:25:03.315Z,1.67
2023-03-10T06:27:33.806Z,1.50
2023-03-10T06:30:06.673Z,1.80
2023-03-10T06:32:39.936Z,1.97
2023-03-10T06:35:10.736Z,2.70
2023-03-10T06:37:48.468Z,2.50
2023-03-10T06:40:18.655Z,2.70
2023-03-10T06:42:48.864Z,2.97
2023-03-10T06:45:21.474Z,3.60
2023-03-10T06:47:51.505Z,3.70
2023-03-10T06:50:21.274Z,3.00
2023-03-10T06:52:51.167Z,2.23
2023-03-10T06:55:21.143Z,2.37
2023-03-10T06:57:51.223Z,1.63
2023-03-10T07:00:24.629Z,1.80
2023-03-10T07:02:54.413Z,1.63
2023-03-10T07:05:24.969Z,1.80
2023-03-10T07:07:54.935Z,1.93
2023-03-10T07:10:24.847Z,2.50
2023-03-10T07:12:55.364Z,3.27
2023-03-10T07:15:28.391Z,3.43
2023-03-10T07:17:58.949Z,2.87
2023-03-10T07:20:29.040Z,3.27
2023-03-10T07:22:58.945Z,3.10
2023-03-10T07:25:29.638Z,3.00
2023-03-10T07:27:59.382Z,2.57
2023-03-10T07:30:31.761Z,2.00
2023-03-10T07:33:01.688Z,1.77
2023-03-10T07:35:31.614Z,2.00
2023-03-10T07:38:01.475Z,2.27
2023-03-10T07:40:31.323Z,1.43
2023-03-10T07:43:01.118Z,2.40
2023-03-10T07:45:34.685Z,2.07
2023-03-10T07:48:04.434Z,1.67
2023-03-10T07:50:34.583Z,2.07
2023-03-10T07:53:04.834Z,2.03
2023-03-10T07:55:34.829Z,2.00
2023-03-10T07:58:04.554Z,2.03
2023-03-10T08:00:37.038Z,3.30
2023-03-10T08:03:06.951Z,2.83
2023-03-10T08:05:36.846Z,3.50
2023-03-10T08:08:06.648Z,3.73
2023-03-10T08:10:36.797Z,2.57
2023-03-10T08:13:06.751Z,2.90
2023-03-10T08:15:40.545Z,3.17
2023-03-10T08:18:11.259Z,2.67
2023-03-10T08:20:41.309Z,2.40
2023-03-10T08:23:11.174Z,2.70
2023-03-10T08:25:41.183Z,3.40
2023-03-10T08:28:11.155Z,3.67
2023-03-10T08:31:02.563Z,3.60
2023-03-10T08:33:33.764Z,3.30
2023-03-10T08:36:09.089Z,3.23
2023-03-10T08:38:39.739Z,3.00
2023-03-10T08:41:17.760Z,2.60
2023-03-10T08:43:49.306Z,2.30
2023-03-10T08:46:24.763Z,2.10
2023-03-10T08:48:55.760Z,2.70
2023-03-10T08:51:26.796Z,3.03
2023-03-10T08:53:57.004Z,2.50
2023-03-10T08:56:27.122Z,2.80
2023-03-10T08:58:59.506Z,1.97
2023-03-10T09:01:34.174Z,2.53
2023-03-10T09:04:07.132Z,2.80
2023-03-10T09:06:38.024Z,1.90
2023-03-10T09:09:10.226Z,2.00
2023-03-10T09:11:42.609Z,1.93
2023-03-10T09:14:16.940Z,2.20
2023-03-10T09:16:50.113Z,2.30
2023-03-10T09:19:20.370Z,1.83
2023-03-10T09:21:50.495Z,2.43
2023-03-10T09:24:20.990Z,2.03
2023-03-10T09:26:53.211Z,2.40
2023-03-10T09:29:36.537Z,2.30
2023-03-10T09:32:14.601Z,2.27
2023-03-10T09:34:45.530Z,2.57
2023-03-10T09:37:15.383Z,2.67
2023-03-10T09:39:45.272Z,2.17
2023-03-10T09:42:38.776Z,2.20
2023-03-10T09:45:23.103Z,2.80
2023-03-10T09:48:25.955Z,2.33
2023-03-10T09:50:57.041Z,2.93
2023-03-10T09:53:49.200Z,2.43
2023-03-10T09:56:23.604Z,1.93
2023-03-10T09:58:56.987Z,1.73
2023-03-10T10:01:29.913Z,2.27
2023-03-10T10:04:07.687Z,2.60
2023-03-10T10:06:39.968Z,2.00
2023-03-10T10:09:21.063Z,2.00
2023-03-10T10:11:50.955Z,1.90
2023-03-10T10:14:31.441Z,1.83
2023-03-10T10:17:08.438Z,2.00
2023-03-10T10:19:43.195Z,2.17
2023-03-10T10:22:22.959Z,1.77
2023-03-10T10:25:07.572Z,1.90
2023-03-10T10:27:38.634Z,2.40
2023-03-10T10:30:32.324Z,2.13
2023-03-10T10:33:04.179Z,1.70
2023-03-10T10:35:39.380Z,1.57
2023-03-10T10:38:20.496Z,1.83
2023-03-10T10:40:54.183Z,1.20
2023-03-10T10:43:24.666Z,1.47
2023-03-10T10:45:57.089Z,1.40
2023-03-10T10:48:45.287Z,1.40
2023-03-10T10:51:29.696Z,1.50
2023-03-10T10:54:00.333Z,2.00
2023-03-10T10:56:31.125Z,1.37
2023-03-10T10:59:06.816Z,1.23
2023-03-10T11:01:55.921Z,1.43
2023-03-10T11:04:27.059Z,1.33
2023-03-10T11:07:13.961Z,1.60
2023-03-10T11:09:43.872Z,1.40
2023-03-10T11:12:22.144Z,1.50
2023-03-10T11:15:07.060Z,1.37
2023-03-10T11:17:43.242Z,1.60
2023-03-10T11:20:26.287Z,1.53
2023-03-10T11:23:11.152Z,1.50
2023-03-10T11:25:45.500Z,1.40
2023-03-10T11:28:27.001Z,1.07
2023-03-10T11:31:07.815Z,1.40
2023-03-10T11:33:45.729Z,1.70
2023-03-10T11:36:35.116Z,1.60
2023-03-10T11:39:20.676Z,1.30
2023-03-10T11:41:56.064Z,1.03
2023-03-10T11:44:32.642Z,1.17
2023-03-10T11:47:10.301Z,1.30
2023-03-10T11:49:45.848Z,1.07
2023-03-10T11:52:20.058Z,0.97
2023-03-10T11:54:59.363Z,1.00
2023-03-10T11:57:33.300Z,1.30
2023-03-10T12:00:09.398Z,1.00
2023-03-10T12:02:45.657Z,1.03
2023-03-10T12:05:22.709Z,0.80
2023-03-10T12:07:55.758Z,0.93
2023-03-10T12:10:29.510Z,1.20
2023-03-10T12:12:59.434Z,1.00
2023-03-10T12:15:33.957Z,1.60
2023-03-10T12:18:07.013Z,1.60
2023-03-10T12:20:37.933Z,1.20
2023-03-10T12:23:33.040Z,1.00
2023-03-10T12:26:05.534Z,0.70
2023-03-10T12:28:35.626Z,0.70
2023-03-10T12:31:07.311Z,0.60
2023-03-10T12:33:47.409Z,0.70
2023-03-10T12:36:27.233Z,0.80
2023-03-10T12:38:58.358Z,0.90
2023-03-10T12:41:49.824Z,1.00
2023-03-10T12:44:34.983Z,0.70
2023-03-10T12:47:18.691Z,0.67
2023-03-10T12:49:56.450Z,0.67
2023-03-10T12:52:34.298Z,0.60
2023-03-10T12:55:24.477Z,0.70
2023-03-10T12:58:06.469Z,0.83
2023-03-10T13:00:47.602Z,0.80
2023-03-10T13:03:32.335Z,0.60
2023-03-10T13:06:05.720Z,0.70
2023-03-10T13:08:45.261Z,0.67
2023-03-10T13:11:31.834Z,0.60
2023-03-10T13:14:07.469Z,0.77
2023-03-10T13:16:37.315Z,0.80
2023-03-10T13:19:07.661Z,5.70
2023-03-10T13:21:40.875Z,2.50
2023-03-10T13:24:26.540Z,1.30
2023-03-10T13:27:08.013Z,1.40
2023-03-10T13:29:40.633Z,1.13
2023-03-10T13:32:21.640Z,1.80
2023-03-10T13:34:51.749Z,2.30
2023-03-10T13:37:21.765Z,2.50
2023-03-10T13:39:51.779Z,3.10
2023-03-10T13:42:37.133Z,3.33
2023-03-10T13:45:28.628Z,3.90
2023-03-10T13:47:59.280Z,4.67
2023-03-10T13:50:29.483Z,5.20
2023-03-10T13:53:00.767Z,6.37
2023-03-10T13:55:31.200Z,5.63
2023-03-10T13:58:02.196Z,1.90
2023-03-10T14:00:36.072Z,3.83
2023-03-10T14:03:05.990Z,5.60
2023-03-10T14:05:46.087Z,5.23
2023-03-10T14:08:24.155Z,7.77
2023-03-10T14:10:54.345Z,4.20
2023-03-10T14:13:42.487Z,2.90
2023-03-10T14:16:15.266Z,1.93
2023-03-10T14:18:45.989Z,2.27
2023-03-10T14:21:34.288Z,1.70
2023-03-10T14:24:08.914Z,1.77
2023-03-10T14:26:40.771Z,1.90
2023-03-10T14:29:17.116Z,2.57
2023-03-10T14:31:53.376Z,2.30
2023-03-10T14:34:23.231Z,1.67
2023-03-10T14:36:53.030Z,1.40
2023-03-10T14:39:22.848Z,1.27
2023-03-10T14:41:53.907Z,0.60
2023-03-10T14:44:23.839Z,0.67
2023-03-10T14:46:56.803Z,0.50
2023-03-10T14:49:28.827Z,0.70
2023-03-10T14:51:58.898Z,0.63
2023-03-10T14:54:29.007Z,0.50
2023-03-10T14:57:00.977Z,0.73
2023-03-10T14:59:37.843Z,0.70
2023-03-10T15:02:29.032Z,0.50
2023-03-10T15:05:00.882Z,0.80
2023-03-10T15:07:35.185Z,0.70
2023-03-10T15:10:11.841Z,0.60
2023-03-10T15:12:52.994Z,0.60
2023-03-10T15:15:36.331Z,1.00
2023-03-10T15:18:11.633Z,1.00
2023-03-10T15:20:47.531Z,0.70
2023-03-10T15:23:24.421Z,1.10
2023-03-10T15:26:01.271Z,1.20
2023-03-10T15:28:36.271Z,1.23
2023-03-10T15:31:13.130Z,1.00
2023-03-10T15:33:52.710Z,1.20
2023-03-10T15:36:25.659Z,1.10
2023-03-10T15:38:55.730Z,1.50
2023-03-10T15:41:27.795Z,1.17
2023-03-10T15:43:59.200Z,1.70
2023-03-10T15:46:31.867Z,1.40
2023-03-10T15:49:06.217Z,1.30
2023-03-10T15:51:37.824Z,1.53
2023-03-10T15:54:12.993Z,1.70
2023-03-10T15:56:43.991Z,1.57
2023-03-10T15:59:22.957Z,1.47
2023-03-10T16:01:56.798Z,2.83
2023-03-10T16:04:43.229Z,2.60
2023-03-10T16:07:17.427Z,1.90
2023-03-10T16:09:53.117Z,2.20
2023-03-10T16:12:27.197Z,2.50
2023-03-10T16:14:58.551Z,2.37
2023-03-10T16:17:38.899Z,2.77
2023-03-10T16:20:17.322Z,2.67
2023-03-10T16:22:49.035Z,1.93
2023-03-10T16:25:23.178Z,1.83
2023-03-10T16:27:55.428Z,3.43
2023-03-10T16:30:25.842Z,3.93
2023-03-10T16:33:01.323Z,2.53
2023-03-10T16:35:34.032Z,2.00
2023-03-10T16:38:12.312Z,2.27
2023-03-10T16:40:44.281Z,1.87
2023-03-10T16:43:15.257Z,2.40
2023-03-10T16:45:48.801Z,2.60
2023-03-10T16:48:20.385Z,2.60
2023-03-10T16:50:53.208Z,3.43
2023-03-10T16:53:23.083Z,2.97
2023-03-10T16:55:53.048Z,2.33
2023-03-10T16:58:26.001Z,2.93
2023-03-10T17:00:55.981Z,2.30
2023-03-10T17:03:25.962Z,2.80
2023-03-10T17:05:58.582Z,2.33
2023-03-10T17:08:28.533Z,3.33
2023-03-10T17:10:58.326Z,3.70
2023-03-10T17:13:28.149Z,3.87
2023-03-10T17:15:57.965Z,4.20
2023-03-10T17:18:27.844Z,3.90
2023-03-10T17:21:00.264Z,5.23
2023-03-10T17:23:32.047Z,3.93
2023-03-10T17:26:01.935Z,3.60
2023-03-10T17:28:31.703Z,2.23
2023-03-10T17:31:05.796Z,3.20
2023-03-10T17:33:36.858Z,1.83
2023-03-10T17:36:12.885Z,1.40
2023-03-10T17:38:42.848Z,1.63
2023-03-10T17:41:14.771Z,2.33
2023-03-10T17:43:45.560Z,2.10
2023-03-10T17:46:18.250Z,2.70
2023-03-10T17:48:48.989Z,1.53
2023-03-10T17:51:24.167Z,1.87
2023-03-10T17:53:54.848Z,2.67
2023-03-10T17:56:24.922Z,1.80
2023-03-10T17:58:56.413Z,1.43
2023-03-10T18:01:28.926Z,2.27
2023-03-10T18:03:59.539Z,2.97
2023-03-10T18:06:34.813Z,2.70
2023-03-10T18:09:07.952Z,2.33
2023-03-10T18:11:40.434Z,2.07
2023-03-10T18:14:10.457Z,1.97
2023-03-10T18:16:42.917Z,1.73
2023-03-10T18:19:13.773Z,1.97
2023-03-10T18:21:46.328Z,1.70
2023-03-10T18:24:16.584Z,2.10
2023-03-10T18:26:47.811Z,2.33
2023-03-10T18:29:18.441Z,2.73
2023-03-10T18:31:48.448Z,3.07
2023-03-10T18:34:19.580Z,3.17
2023-03-10T18:36:52.203Z,3.27
2023-03-10T18:39:22.079Z,4.40
2023-03-10T18:41:51.945Z,3.53
2023-03-10T18:44:21.805Z,2.30
2023-03-10T18:46:53.305Z,2.70
2023-03-10T18:49:24.923Z,3.37
2023-03-10T18:51:57.529Z,2.97
2023-03-10T18:54:27.340Z,3.33
2023-03-10T18:56:59.536Z,2.77
2023-03-10T18:59:29.449Z,1.63
2023-03-10T19:01:59.457Z,2.10
2023-03-10T19:04:29.540Z,1.57
2023-03-10T19:07:02.239Z,2.40
2023-03-10T19:09:32.140Z,2.07
2023-03-10T19:12:03.891Z,2.40
2023-03-10T19:14:33.819Z,2.70
2023-03-10T19:17:03.863Z,1.90
2023-03-10T19:19:33.812Z,2.07
2023-03-10T19:22:06.664Z,1.90
2023-03-10T19:24:36.817Z,2.43
2023-03-10T19:27:07.071Z,2.47
2023-03-10T19:29:37.006Z,2.17
2023-03-10T19:32:08.027Z,2.10
2023-03-10T19:34:38.149Z,2.73
2023-03-10T19:37:10.565Z,2.90
2023-03-10T19:39:40.418Z,2.90
2023-03-10T19:42:10.592Z,2.67
2023-03-10T19:44:41.280Z,1.80
2023-03-10T19:47:11.663Z,1.53
2023-03-10T19:49:41.734Z,0.90
2023-03-10T19:52:14.485Z,1.23
2023-03-10T19:54:44.415Z,1.50
2023-03-10T19:57:14.843Z,1.63
2023-03-10T19:59:45.754Z,1.53
2023-03-10T20:02:17.436Z,1.83
2023-03-10T20:04:49.260Z,1.47
2023-03-10T20:07:21.740Z,2.43
2023-03-10T20:09:51.541Z,2.33
2023-03-10T20:12:22.237Z,1.97
2023-03-10T20:14:57.429Z,2.47
2023-03-10T20:17:27.379Z,2.67
2023-03-10T20:19:57.381Z,2.80
2023-03-10T20:22:30.370Z,1.70
2023-03-10T20:25:01.097Z,3.53
2023-03-10T20:27:31.280Z,2.60
2023-03-10T20:30:01.478Z,2.53
2023-03-10T20:32:31.765Z,2.30
2023-03-10T20:35:01.758Z,2.20
2023-03-10T20:37:35.900Z,2.90
2023-03-10T20:40:06.903Z,2.40
2023-03-10T20:42:40.353Z,2.67
2023-03-10T20:45:12.663Z,2.90
2023-03-10T20:47:44.535Z,2.20
2023-03-10T20:50:15.468Z,2.57
2023-03-10T20:52:48.314Z,2.27
2023-03-10T20:55:20.455Z,2.73
2023-03-10T20:57:51.066Z,2.07
2023-03-10T21:00:23.053Z,1.30
2023-03-10T21:02:56.114Z,1.43
2023-03-10T21:05:27.257Z,1.70
2023-03-10T21:08:00.196Z,1.87
2023-03-10T21:10:32.346Z,1.83
2023-03-10T21:13:02.232Z,1.40
2023-03-10T21:15:32.234Z,1.77
2023-03-10T21:18:02.077Z,1.50
2023-03-10T21:20:32.002Z,1.90
2023-03-10T21:23:04.472Z,1.83
2023-03-10T21:25:34.281Z,1.43
2023-03-10T21:28:06.938Z,2.33
2023-03-10T21:30:37.159Z,2.53
2023-03-10T21:33:07.241Z,2.20
2023-03-10T21:35:40.631Z,1.57
2023-03-10T21:38:13.814Z,2.57
2023-03-10T21:40:43.782Z,2.80
2023-03-10T21:43:14.081Z,3.50
2023-03-10T21:45:43.915Z,2.73
2023-03-10T21:48:14.546Z,2.80
2023-03-10T21:50:44.345Z,2.23
2023-03-10T21:53:17.243Z,2.93
2023-03-10T21:55:47.230Z,2.87
2023-03-10T21:58:17.119Z,2.50
2023-03-10T22:00:47.102Z,1.10
2023-03-10T22:03:16.931Z,1.27
2023-03-10T22:05:47.091Z,1.90
2023-03-10T22:08:19.477Z,1.73
2023-03-10T22:10:49.337Z,1.77
2023-03-10T22:13:19.157Z,2.03
2023-03-10T22:15:49.065Z,1.93
2023-03-10T22:18:18.945Z,1.90
2023-03-10T22:20:49.197Z,1.07
2023-03-10T22:23:21.616Z,1.17
2023-03-10T22:25:51.874Z,1.50
2023-03-10T22:28:21.703Z,1.90
2023-03-10T22:30:51.557Z,1.70
2023-03-10T22:33:21.490Z,1.43
2023-03-10T22:35:52.302Z,1.20
2023-03-10T22:38:25.070Z,1.43
2023-03-10T22:40:54.836Z,1.30
2023-03-10T22:43:24.818Z,1.33
2023-03-10T22:45:56.606Z,2.27
2023-03-10T22:48:26.397Z,1.60
2023-03-10T22:50:56.151Z,1.93
2023-03-10T22:53:28.598Z,1.60
2023-03-10T22:55:58.411Z,1.57
2023-03-10T22:58:28.311Z,1.23
2023-03-10T23:00:58.325Z,1.03
2023-03-10T23:03:28.296Z,1.27
2023-03-10T23:06:01.047Z,1.20
2023-03-10T23:08:33.482Z,1.60
2023-03-10T23:11:11.709Z,1.43
2023-03-10T23:13:41.865Z,1.97
2023-03-10T23:16:12.304Z,2.00
2023-03-10T23:18:42.199Z,2.10
2023-03-10T23:21:12.168Z,1.70
2023-03-10T23:23:48.257Z,1.80
2023-03-10T23:26:18.152Z,2.40
2023-03-10T23:28:48.008Z,1.93
2023-03-10T23:31:18.171Z,1.63
2023-03-10T23:33:49.648Z,1.63
2023-03-10T23:36:19.810Z,1.80
2023-03-10T23:38:55.464Z,1.63
2023-03-10T23:41:25.312Z,2.03
2023-03-10T23:43:55.297Z,2.00
2023-03-10T23:46:25.332Z,3.40
2023-03-10T23:48:55.312Z,2.97
2023-03-10T23:51:25.108Z,2.73
2023-03-10T23:53:57.589Z,3.23
2023-03-10T23:56:27.458Z,2.83
2023-03-10T23:58:58.933Z,2.93
